sensor_id;sensor_type;location;lat;lon;timestamp;P1;durP1;ratioP1;P2;durP2;ratioP2
11763;SDS011;5939;56.522;14.950;2022-08-01T00:02:12;1.07;;;0.83;;
11763;SDS011;5939;56.522;14.950;2022-08-01T00:04:38;0.97;;;0.97;;
11763;SDS011;5939;56.522;14.950;2022-08-01T00:07:03;1.10;;;0.90;;
11763;SDS011;5939;56.522;14.950;2022-08-01T00:09:29;1.27;;;1.00;;
11763;SDS011;5939;56.522;14.950;2022-08-01T00:11:55;1.10;;;1.00;;
11763;SDS011;5939;56.522;14.950;2022-08-01T00:14:20;0.90;;;0.90;;
11763;SDS011;5939;56.522;14.950;2022-08-01T00:16:46;1.13;;;1.03;;
11763;SDS011;5939;56.522;14.950;2022-08-01T00:19:12;1.20;;;1.10;;
11763;SDS011;5939;56.522;14.950;2022-08-01T00:21:37;1.17;;;1.00;;
11763;SDS011;5939;56.522;14.950;2022-08-01T00:24:03;1.10;;;1.00;;
11763;SDS011;5939;56.522;14.950;2022-08-01T00:26:29;1.10;;;1.00;;
11763;SDS011;5939;56.522;14.950;2022-08-01T00:28:55;1.30;;;1.20;;
11763;SDS011;5939;56.522;14.950;2022-08-01T00:31:20;1.40;;;1.30;;
11763;SDS011;5939;56.522;14.950;2022-08-01T00:33:46;1.93;;;1.30;;
11763;SDS011;5939;56.522;14.950;2022-08-01T00:36:12;1.27;;;1.17;;
11763;SDS011;5939;56.522;14.950;2022-08-01T00:38:37;1.40;;;1.30;;
11763;SDS011;5939;56.522;14.950;2022-08-01T00:41:03;1.40;;;1.30;;
11763;SDS011;5939;56.522;14.950;2022-08-01T00:43:28;1.60;;;1.50;;
11763;SDS011;5939;56.522;14.950;2022-08-01T00:45:54;1.93;;;1.33;;
11763;SDS011;5939;56.522;14.950;2022-08-01T00:48:20;2.00;;;1.50;;
11763;SDS011;5939;56.522;14.950;2022-08-01T00:50:45;2.37;;;1.60;;
11763;SDS011;5939;56.522;14.950;2022-08-01T00:53:11;1.27;;;1.17;;
11763;SDS011;5939;56.522;14.950;2022-08-01T00:55:37;2.33;;;1.70;;
11763;SDS011;5939;56.522;14.950;2022-08-01T00:58:03;2.17;;;1.80;;
11763;SDS011;5939;56.522;14.950;2022-08-01T01:00:29;2.10;;;1.80;;
11763;SDS011;5939;56.522;14.950;2022-08-01T01:02:54;4.30;;;2.30;;
11763;SDS011;5939;56.522;14.950;2022-08-01T01:05:20;3.00;;;2.43;;
11763;SDS011;5939;56.522;14.950;2022-08-01T01:15:51;2.07;;;1.87;;
11763;SDS011;5939;56.522;14.950;2022-08-01T01:18:24;3.43;;;2.67;;
11763;SDS011;5939;56.522;14.950;2022-08-01T01:26:23;2.27;;;2.07;;
11763;SDS011;5939;56.522;14.950;2022-08-01T01:29:04;3.57;;;2.70;;
11763;SDS011;5939;56.522;14.950;2022-08-01T01:31:36;3.47;;;2.60;;
11763;SDS011;5939;56.522;14.950;2022-08-01T01:34:17;2.97;;;2.63;;
11763;SDS011;5939;56.522;14.950;2022-08-01T01:36:47;3.77;;;2.77;;
11763;SDS011;5939;56.522;14.950;2022-08-01T01:39:14;3.47;;;2.87;;
11763;SDS011;5939;56.522;14.950;2022-08-01T01:41:42;3.83;;;2.80;;
11763;SDS011;5939;56.522;14.950;2022-08-01T01:44:09;4.10;;;2.90;;
11763;SDS011;5939;56.522;14.950;2022-08-01T01:46:36;3.33;;;2.70;;
11763;SDS011;5939;56.522;14.950;2022-08-01T01:49:03;3.10;;;2.77;;
11763;SDS011;5939;56.522;14.950;2022-08-01T01:51:34;2.80;;;2.47;;
11763;SDS011;5939;56.522;14.950;2022-08-01T01:54:01;3.50;;;2.77;;
11763;SDS011;5939;56.522;14.950;2022-08-01T01:56:29;2.90;;;2.50;;
11763;SDS011;5939;56.522;14.950;2022-08-01T01:58:56;3.10;;;2.60;;
11763;SDS011;5939;56.522;14.950;2022-08-01T02:01:25;3.50;;;2.90;;
11763;SDS011;5939;56.522;14.950;2022-08-01T02:03:55;3.77;;;2.83;;
11763;SDS011;5939;56.522;14.950;2022-08-01T02:06:22;3.33;;;2.80;;
11763;SDS011;5939;56.522;14.950;2022-08-01T02:08:50;3.70;;;2.67;;
11763;SDS011;5939;56.522;14.950;2022-08-01T02:11:19;2.90;;;2.37;;
11763;SDS011;5939;56.522;14.950;2022-08-01T02:13:54;2.80;;;2.47;;
11763;SDS011;5939;56.522;14.950;2022-08-01T02:16:26;3.03;;;2.33;;
11763;SDS011;5939;56.522;14.950;2022-08-01T02:18:54;2.93;;;2.50;;
11763;SDS011;5939;56.522;14.950;2022-08-01T02:21:23;2.30;;;2.10;;
11763;SDS011;5939;56.522;14.950;2022-08-01T02:24:19;3.27;;;2.53;;
11763;SDS011;5939;56.522;14.950;2022-08-01T02:27:02;2.80;;;2.20;;
11763;SDS011;5939;56.522;14.950;2022-08-01T02:29:36;2.53;;;2.10;;
11763;SDS011;5939;56.522;14.950;2022-08-01T02:32:06;2.27;;;1.90;;
11763;SDS011;5939;56.522;14.950;2022-08-01T02:34:36;2.30;;;2.10;;
11763;SDS011;5939;56.522;14.950;2022-08-01T02:37:02;2.10;;;1.90;;
11763;SDS011;5939;56.522;14.950;2022-08-01T02:39:29;2.43;;;1.93;;
11763;SDS011;5939;56.522;14.950;2022-08-01T02:41:57;2.70;;;2.23;;
11763;SDS011;5939;56.522;14.950;2022-08-01T02:44:30;2.10;;;1.90;;
11763;SDS011;5939;56.522;14.950;2022-08-01T02:46:59;2.10;;;1.90;;
11763;SDS011;5939;56.522;14.950;2022-08-01T02:49:39;2.20;;;2.00;;
11763;SDS011;5939;56.522;14.950;2022-08-01T02:52:10;2.17;;;1.93;;
11763;SDS011;5939;56.522;14.950;2022-08-01T02:54:38;1.73;;;1.63;;
11763;SDS011;5939;56.522;14.950;2022-08-01T02:57:06;2.17;;;1.97;;
11763;SDS011;5939;56.522;14.950;2022-08-01T02:59:34;2.00;;;1.80;;
11763;SDS011;5939;56.522;14.950;2022-08-01T03:02:04;2.10;;;1.90;;
11763;SDS011;5939;56.522;14.950;2022-08-01T03:04:32;1.60;;;1.50;;
11763;SDS011;5939;56.522;14.950;2022-08-01T03:07:00;2.97;;;1.77;;
11763;SDS011;5939;56.522;14.950;2022-08-01T03:09:28;1.60;;;1.50;;
11763;SDS011;5939;56.522;14.950;2022-08-01T03:11:57;1.60;;;1.50;;
11763;SDS011;5939;56.522;14.950;2022-08-01T03:14:26;1.47;;;1.30;;
11763;SDS011;5939;56.522;14.950;2022-08-01T03:16:55;1.83;;;1.63;;
11763;SDS011;5939;56.522;14.950;2022-08-01T03:19:22;1.70;;;1.60;;
11763;SDS011;5939;56.522;14.950;2022-08-01T03:21:51;1.50;;;1.40;;
11763;SDS011;5939;56.522;14.950;2022-08-01T03:24:17;1.80;;;1.70;;
11763;SDS011;5939;56.522;14.950;2022-08-01T03:26:44;1.93;;;1.73;;
11763;SDS011;5939;56.522;14.950;2022-08-01T03:29:14;1.60;;;1.50;;
11763;SDS011;5939;56.522;14.950;2022-08-01T03:31:43;1.40;;;1.30;;
11763;SDS011;5939;56.522;14.950;2022-08-01T03:34:09;1.67;;;1.40;;
11763;SDS011;5939;56.522;14.950;2022-08-01T03:36:38;1.60;;;1.47;;
11763;SDS011;5939;56.522;14.950;2022-08-01T03:39:28;1.60;;;1.50;;
11763;SDS011;5939;56.522;14.950;2022-08-01T03:42:16;1.47;;;1.37;;
11763;SDS011;5939;56.522;14.950;2022-08-01T03:44:52;1.83;;;1.63;;
11763;SDS011;5939;56.522;14.950;2022-08-01T03:47:21;1.70;;;1.60;;
11763;SDS011;5939;56.522;14.950;2022-08-01T03:49:50;1.60;;;1.50;;
11763;SDS011;5939;56.522;14.950;2022-08-01T03:52:18;1.47;;;1.37;;
11763;SDS011;5939;56.522;14.950;2022-08-01T03:54:46;1.50;;;1.40;;
11763;SDS011;5939;56.522;14.950;2022-08-01T03:57:14;1.93;;;1.57;;
11763;SDS011;5939;56.522;14.950;2022-08-01T03:59:41;2.47;;;1.73;;
11763;SDS011;5939;56.522;14.950;2022-08-01T04:02:08;1.80;;;1.70;;
11763;SDS011;5939;56.522;14.950;2022-08-01T04:04:34;1.60;;;1.50;;
11763;SDS011;5939;56.522;14.950;2022-08-01T04:07:01;1.70;;;1.60;;
11763;SDS011;5939;56.522;14.950;2022-08-01T04:09:32;1.70;;;1.60;;
11763;SDS011;5939;56.522;14.950;2022-08-01T04:11:58;1.90;;;1.53;;
11763;SDS011;5939;56.522;14.950;2022-08-01T04:14:25;1.97;;;1.80;;
11763;SDS011;5939;56.522;14.950;2022-08-01T04:16:52;1.97;;;1.87;;
11763;SDS011;5939;56.522;14.950;2022-08-01T04:19:18;2.20;;;2.00;;
11763;SDS011;5939;56.522;14.950;2022-08-01T04:21:44;1.83;;;1.73;;
11763;SDS011;5939;56.522;14.950;2022-08-01T04:24:12;2.07;;;1.70;;
11763;SDS011;5939;56.522;14.950;2022-08-01T04:26:41;1.70;;;1.60;;
11763;SDS011;5939;56.522;14.950;2022-08-01T04:29:09;1.90;;;1.67;;
11763;SDS011;5939;56.522;14.950;2022-08-01T04:31:36;1.80;;;1.70;;
11763;SDS011;5939;56.522;14.950;2022-08-01T04:34:04;1.90;;;1.80;;
11763;SDS011;5939;56.522;14.950;2022-08-01T04:36:32;1.97;;;1.77;;
11763;SDS011;5939;56.522;14.950;2022-08-01T04:39:01;1.80;;;1.70;;
11763;SDS011;5939;56.522;14.950;2022-08-01T04:41:30;1.70;;;1.60;;
11763;SDS011;5939;56.522;14.950;2022-08-01T04:43:57;1.90;;;1.80;;
11763;SDS011;5939;56.522;14.950;2022-08-01T04:46:27;1.60;;;1.50;;
11763;SDS011;5939;56.522;14.950;2022-08-01T04:48:54;1.60;;;1.50;;
11763;SDS011;5939;56.522;14.950;2022-08-01T04:51:21;1.60;;;1.50;;
11763;SDS011;5939;56.522;14.950;2022-08-01T04:53:47;1.70;;;1.60;;
11763;SDS011;5939;56.522;14.950;2022-08-01T04:56:15;1.90;;;1.70;;
11763;SDS011;5939;56.522;14.950;2022-08-01T04:58:41;1.70;;;1.60;;
11763;SDS011;5939;56.522;14.950;2022-08-01T05:01:08;2.20;;;2.00;;
11763;SDS011;5939;56.522;14.950;2022-08-01T05:03:34;1.70;;;1.37;;
11763;SDS011;5939;56.522;14.950;2022-08-01T05:06:00;1.83;;;1.73;;
11763;SDS011;5939;56.522;14.950;2022-08-01T05:08:26;1.57;;;1.47;;
11763;SDS011;5939;56.522;14.950;2022-08-01T05:10:52;1.70;;;1.60;;
11763;SDS011;5939;56.522;14.950;2022-08-01T05:13:18;1.60;;;1.50;;
11763;SDS011;5939;56.522;14.950;2022-08-01T05:15:44;1.77;;;1.67;;
11763;SDS011;5939;56.522;14.950;2022-08-01T05:18:09;1.80;;;1.70;;
11763;SDS011;5939;56.522;14.950;2022-08-01T05:20:35;1.87;;;1.77;;
11763;SDS011;5939;56.522;14.950;2022-08-01T05:23:02;1.80;;;1.70;;
11763;SDS011;5939;56.522;14.950;2022-08-01T05:25:28;1.63;;;1.53;;
11763;SDS011;5939;56.522;14.950;2022-08-01T05:27:54;1.70;;;1.60;;
11763;SDS011;5939;56.522;14.950;2022-08-01T05:30:20;1.70;;;1.60;;
11763;SDS011;5939;56.522;14.950;2022-08-01T05:32:45;1.60;;;1.50;;
11763;SDS011;5939;56.522;14.950;2022-08-01T05:35:11;1.73;;;1.63;;
11763;SDS011;5939;56.522;14.950;2022-08-01T05:37:37;1.67;;;1.57;;
11763;SDS011;5939;56.522;14.950;2022-08-01T05:40:03;1.53;;;1.43;;
11763;SDS011;5939;56.522;14.950;2022-08-01T05:42:29;1.80;;;1.70;;
11763;SDS011;5939;56.522;14.950;2022-08-01T05:44:55;1.73;;;1.60;;
11763;SDS011;5939;56.522;14.950;2022-08-01T05:47:21;2.13;;;1.93;;
11763;SDS011;5939;56.522;14.950;2022-08-01T05:49:46;1.80;;;1.70;;
11763;SDS011;5939;56.522;14.950;2022-08-01T05:52:12;2.20;;;2.00;;
11763;SDS011;5939;56.522;14.950;2022-08-01T05:54:38;1.67;;;1.57;;
11763;SDS011;5939;56.522;14.950;2022-08-01T05:57:03;1.57;;;1.47;;
11763;SDS011;5939;56.522;14.950;2022-08-01T05:59:29;1.80;;;1.70;;
11763;SDS011;5939;56.522;14.950;2022-08-01T06:01:55;1.80;;;1.70;;
11763;SDS011;5939;56.522;14.950;2022-08-01T06:04:21;1.60;;;1.50;;
11763;SDS011;5939;56.522;14.950;2022-08-01T06:06:47;1.67;;;1.57;;
11763;SDS011;5939;56.522;14.950;2022-08-01T06:09:13;1.50;;;1.40;;
11763;SDS011;5939;56.522;14.950;2022-08-01T06:11:39;1.57;;;1.47;;
11763;SDS011;5939;56.522;14.950;2022-08-01T06:14:04;1.40;;;1.30;;
11763;SDS011;5939;56.522;14.950;2022-08-01T06:16:30;1.73;;;1.63;;
11763;SDS011;5939;56.522;14.950;2022-08-01T06:18:56;1.60;;;1.50;;
11763;SDS011;5939;56.522;14.950;2022-08-01T06:21:21;1.60;;;1.50;;
11763;SDS011;5939;56.522;14.950;2022-08-01T06:23:47;1.47;;;1.37;;
11763;SDS011;5939;56.522;14.950;2022-08-01T06:26:13;1.60;;;1.50;;
11763;SDS011;5939;56.522;14.950;2022-08-01T06:28:38;1.67;;;1.57;;
11763;SDS011;5939;56.522;14.950;2022-08-01T06:31:04;1.60;;;1.50;;
11763;SDS011;5939;56.522;14.950;2022-08-01T06:33:30;1.47;;;1.33;;
11763;SDS011;5939;56.522;14.950;2022-08-01T06:35:56;1.47;;;1.37;;
11763;SDS011;5939;56.522;14.950;2022-08-01T06:38:22;1.60;;;1.50;;
11763;SDS011;5939;56.522;14.950;2022-08-01T06:40:49;1.60;;;1.50;;
11763;SDS011;5939;56.522;14.950;2022-08-01T06:43:15;1.60;;;1.50;;
11763;SDS011;5939;56.522;14.950;2022-08-01T06:45:40;1.40;;;1.30;;
11763;SDS011;5939;56.522;14.950;2022-08-01T06:48:06;1.50;;;1.40;;
11763;SDS011;5939;56.522;14.950;2022-08-01T06:50:32;1.63;;;1.53;;
11763;SDS011;5939;56.522;14.950;2022-08-01T06:52:57;1.50;;;1.40;;
11763;SDS011;5939;56.522;14.950;2022-08-01T06:55:23;2.33;;;1.67;;
11763;SDS011;5939;56.522;14.950;2022-08-01T06:57:50;1.60;;;1.50;;
11763;SDS011;5939;56.522;14.950;2022-08-01T07:00:17;1.70;;;1.60;;
11763;SDS011;5939;56.522;14.950;2022-08-01T07:02:47;1.60;;;1.50;;
11763;SDS011;5939;56.522;14.950;2022-08-01T07:05:14;1.80;;;1.70;;
11763;SDS011;5939;56.522;14.950;2022-08-01T07:07:40;1.60;;;1.50;;
11763;SDS011;5939;56.522;14.950;2022-08-01T07:10:05;1.47;;;1.37;;
11763;SDS011;5939;56.522;14.950;2022-08-01T07:12:33;6.30;;;1.90;;
11763;SDS011;5939;56.522;14.950;2022-08-01T07:15:01;1.40;;;1.30;;
11763;SDS011;5939;56.522;14.950;2022-08-01T07:17:28;1.50;;;1.40;;
11763;SDS011;5939;56.522;14.950;2022-08-01T07:19:54;1.70;;;1.60;;
11763;SDS011;5939;56.522;14.950;2022-08-01T07:22:20;1.60;;;1.50;;
11763;SDS011;5939;56.522;14.950;2022-08-01T07:24:46;1.67;;;1.57;;
11763;SDS011;5939;56.522;14.950;2022-08-01T07:27:11;2.03;;;1.53;;
11763;SDS011;5939;56.522;14.950;2022-08-01T07:29:37;1.90;;;1.60;;
11763;SDS011;5939;56.522;14.950;2022-08-01T07:32:03;2.53;;;1.70;;
11763;SDS011;5939;56.522;14.950;2022-08-01T07:34:29;2.00;;;1.60;;
11763;SDS011;5939;56.522;14.950;2022-08-01T07:36:54;1.60;;;1.50;;
11763;SDS011;5939;56.522;14.950;2022-08-01T07:39:20;1.50;;;1.40;;
11763;SDS011;5939;56.522;14.950;2022-08-01T07:41:46;1.90;;;1.50;;
11763;SDS011;5939;56.522;14.950;2022-08-01T07:44:12;1.67;;;1.57;;
11763;SDS011;5939;56.522;14.950;2022-08-01T07:46:39;1.77;;;1.67;;
11763;SDS011;5939;56.522;14.950;2022-08-01T07:49:04;1.70;;;1.60;;
11763;SDS011;5939;56.522;14.950;2022-08-01T07:51:30;1.90;;;1.70;;
11763;SDS011;5939;56.522;14.950;2022-08-01T07:53:55;1.70;;;1.57;;
11763;SDS011;5939;56.522;14.950;2022-08-01T07:56:21;1.53;;;1.43;;
11763;SDS011;5939;56.522;14.950;2022-08-01T07:58:49;3.10;;;1.67;;
11763;SDS011;5939;56.522;14.950;2022-08-01T08:01:15;1.90;;;1.70;;
11763;SDS011;5939;56.522;14.950;2022-08-01T08:03:41;1.70;;;1.50;;
11763;SDS011;5939;56.522;14.950;2022-08-01T08:06:06;1.57;;;1.40;;
11763;SDS011;5939;56.522;14.950;2022-08-01T08:08:32;1.50;;;1.40;;
11763;SDS011;5939;56.522;14.950;2022-08-01T08:10:59;1.60;;;1.50;;
11763;SDS011;5939;56.522;14.950;2022-08-01T08:13:25;3.13;;;1.70;;
11763;SDS011;5939;56.522;14.950;2022-08-01T08:15:51;1.60;;;1.50;;
11763;SDS011;5939;56.522;14.950;2022-08-01T08:18:17;1.67;;;1.50;;
11763;SDS011;5939;56.522;14.950;2022-08-01T08:20:43;1.40;;;1.30;;
11763;SDS011;5939;56.522;14.950;2022-08-01T08:23:09;1.97;;;1.60;;
11763;SDS011;5939;56.522;14.950;2022-08-01T08:25:53;1.70;;;1.40;;
11763;SDS011;5939;56.522;14.950;2022-08-01T08:28:19;2.80;;;1.50;;
11763;SDS011;5939;56.522;14.950;2022-08-01T08:30:44;1.70;;;1.60;;
11763;SDS011;5939;56.522;14.950;2022-08-01T08:33:10;2.23;;;1.50;;
11763;SDS011;5939;56.522;14.950;2022-08-01T08:35:36;2.07;;;1.40;;
11763;SDS011;5939;56.522;14.950;2022-08-01T08:38:05;1.43;;;1.30;;
11763;SDS011;5939;56.522;14.950;2022-08-01T08:40:30;1.50;;;1.40;;
11763;SDS011;5939;56.522;14.950;2022-08-01T08:42:59;1.50;;;1.40;;
11763;SDS011;5939;56.522;14.950;2022-08-01T08:45:25;1.30;;;1.20;;
11763;SDS011;5939;56.522;14.950;2022-08-01T08:47:52;1.63;;;1.20;;
11763;SDS011;5939;56.522;14.950;2022-08-01T08:50:19;3.97;;;1.30;;
11763;SDS011;5939;56.522;14.950;2022-08-01T08:52:46;2.33;;;1.43;;
11763;SDS011;5939;56.522;14.950;2022-08-01T08:55:13;1.40;;;1.30;;
11763;SDS011;5939;56.522;14.950;2022-08-01T08:57:42;1.77;;;1.30;;
11763;SDS011;5939;56.522;14.950;2022-08-01T09:00:10;1.60;;;1.33;;
11763;SDS011;5939;56.522;14.950;2022-08-01T09:02:40;1.73;;;1.40;;
11763;SDS011;5939;56.522;14.950;2022-08-01T09:05:10;1.43;;;1.33;;
11763;SDS011;5939;56.522;14.950;2022-08-01T09:07:36;1.87;;;1.40;;
11763;SDS011;5939;56.522;14.950;2022-08-01T09:10:02;1.40;;;1.30;;
11763;SDS011;5939;56.522;14.950;2022-08-01T09:12:29;1.53;;;1.37;;
11763;SDS011;5939;56.522;14.950;2022-08-01T09:14:54;2.30;;;1.30;;
11763;SDS011;5939;56.522;14.950;2022-08-01T09:17:20;2.90;;;1.50;;
11763;SDS011;5939;56.522;14.950;2022-08-01T09:19:47;2.07;;;1.40;;
11763;SDS011;5939;56.522;14.950;2022-08-01T09:22:20;2.80;;;1.50;;
11763;SDS011;5939;56.522;14.950;2022-08-01T09:27:25;1.70;;;1.30;;
11763;SDS011;5939;56.522;14.950;2022-08-01T09:29:51;2.77;;;1.50;;
11763;SDS011;5939;56.522;14.950;2022-08-01T09:32:18;1.80;;;1.57;;
11763;SDS011;5939;56.522;14.950;2022-08-01T09:34:45;2.13;;;1.20;;
11763;SDS011;5939;56.522;14.950;2022-08-01T09:37:13;1.40;;;1.23;;
11763;SDS011;5939;56.522;14.950;2022-08-01T09:39:42;2.20;;;1.40;;
11763;SDS011;5939;56.522;14.950;2022-08-01T09:42:23;2.00;;;1.33;;
11763;SDS011;5939;56.522;14.950;2022-08-01T09:44:50;1.57;;;1.30;;
11763;SDS011;5939;56.522;14.950;2022-08-01T09:47:17;1.50;;;1.40;;
11763;SDS011;5939;56.522;14.950;2022-08-01T09:49:45;2.40;;;1.43;;
11763;SDS011;5939;56.522;14.950;2022-08-01T09:52:20;2.80;;;1.40;;
11763;SDS011;5939;56.522;14.950;2022-08-01T09:54:58;1.50;;;1.40;;
11763;SDS011;5939;56.522;14.950;2022-08-01T09:57:26;1.37;;;1.27;;
11763;SDS011;5939;56.522;14.950;2022-08-01T09:59:53;2.23;;;1.30;;
11763;SDS011;5939;56.522;14.950;2022-08-01T10:02:31;1.53;;;1.33;;
11763;SDS011;5939;56.522;14.950;2022-08-01T10:05:10;2.00;;;1.50;;
11763;SDS011;5939;56.522;14.950;2022-08-01T10:07:36;1.33;;;1.23;;
11763;SDS011;5939;56.522;14.950;2022-08-01T10:10:21;1.60;;;1.40;;
11763;SDS011;5939;56.522;14.950;2022-08-01T10:12:46;2.37;;;1.47;;
11763;SDS011;5939;56.522;14.950;2022-08-01T10:15:17;1.70;;;1.27;;
11763;SDS011;5939;56.522;14.950;2022-08-01T10:17:55;1.53;;;1.43;;
11763;SDS011;5939;56.522;14.950;2022-08-01T10:20:24;1.37;;;1.17;;
11763;SDS011;5939;56.522;14.950;2022-08-01T10:22:52;2.30;;;1.40;;
11763;SDS011;5939;56.522;14.950;2022-08-01T10:25:19;1.90;;;1.37;;
11763;SDS011;5939;56.522;14.950;2022-08-01T10:27:48;1.50;;;1.40;;
11763;SDS011;5939;56.522;14.950;2022-08-01T10:30:17;2.70;;;1.40;;
11763;SDS011;5939;56.522;14.950;2022-08-01T10:32:43;1.30;;;1.13;;
11763;SDS011;5939;56.522;14.950;2022-08-01T10:35:12;2.80;;;1.30;;
11763;SDS011;5939;56.522;14.950;2022-08-01T10:37:42;1.50;;;1.27;;
11763;SDS011;5939;56.522;14.950;2022-08-01T10:40:10;1.40;;;1.30;;
11763;SDS011;5939;56.522;14.950;2022-08-01T10:42:38;1.33;;;1.23;;
11763;SDS011;5939;56.522;14.950;2022-08-01T10:45:12;1.30;;;1.20;;
11763;SDS011;5939;56.522;14.950;2022-08-01T10:47:44;1.73;;;1.30;;
11763;SDS011;5939;56.522;14.950;2022-08-01T10:50:21;1.57;;;1.30;;
11763;SDS011;5939;56.522;14.950;2022-08-01T10:55:50;2.87;;;1.40;;
11763;SDS011;5939;56.522;14.950;2022-08-01T10:58:33;2.13;;;1.60;;
11763;SDS011;5939;56.522;14.950;2022-08-01T11:03:44;2.20;;;1.20;;
11763;SDS011;5939;56.522;14.950;2022-08-01T11:06:28;2.30;;;1.40;;
11763;SDS011;5939;56.522;14.950;2022-08-01T11:09:20;1.70;;;1.30;;
11763;SDS011;5939;56.522;14.950;2022-08-01T11:12:10;1.50;;;1.40;;
11763;SDS011;5939;56.522;14.950;2022-08-01T11:23:16;1.37;;;1.27;;
11763;SDS011;5939;56.522;14.950;2022-08-01T11:25:26;2.07;;;1.30;;
11763;SDS011;5939;56.522;14.950;2022-08-01T11:30:49;1.70;;;1.30;;
11763;SDS011;5939;56.522;14.950;2022-08-01T11:41:20;1.33;;;1.23;;
11763;SDS011;5939;56.522;14.950;2022-08-01T11:44:09;1.27;;;1.17;;
11763;SDS011;5939;56.522;14.950;2022-08-01T11:52:16;1.20;;;1.10;;
11763;SDS011;5939;56.522;14.950;2022-08-01T11:57:20;1.73;;;1.43;;
11763;SDS011;5939;56.522;14.950;2022-08-01T11:59:54;1.53;;;1.23;;
11763;SDS011;5939;56.522;14.950;2022-08-01T12:02:22;1.30;;;1.20;;
11763;SDS011;5939;56.522;14.950;2022-08-01T12:04:58;1.57;;;1.30;;
11763;SDS011;5939;56.522;14.950;2022-08-01T12:07:27;1.20;;;1.10;;
11763;SDS011;5939;56.522;14.950;2022-08-01T12:09:58;1.87;;;1.33;;
11763;SDS011;5939;56.522;14.950;2022-08-01T12:12:27;1.43;;;1.10;;
11763;SDS011;5939;56.522;14.950;2022-08-01T12:14:54;1.17;;;1.07;;
11763;SDS011;5939;56.522;14.950;2022-08-01T12:17:32;1.63;;;1.27;;
11763;SDS011;5939;56.522;14.950;2022-08-01T12:20:01;2.80;;;1.20;;
11763;SDS011;5939;56.522;14.950;2022-08-01T12:22:31;1.30;;;1.20;;
11763;SDS011;5939;56.522;14.950;2022-08-01T12:25:16;1.40;;;1.30;;
11763;SDS011;5939;56.522;14.950;2022-08-01T12:27:44;1.10;;;1.00;;
11763;SDS011;5939;56.522;14.950;2022-08-01T12:30:11;1.27;;;1.17;;
11763;SDS011;5939;56.522;14.950;2022-08-01T12:32:43;2.10;;;1.40;;
11763;SDS011;5939;56.522;14.950;2022-08-01T12:35:11;1.30;;;1.20;;
11763;SDS011;5939;56.522;14.950;2022-08-01T12:37:43;1.03;;;0.97;;
11763;SDS011;5939;56.522;14.950;2022-08-01T12:40:14;1.63;;;1.30;;
11763;SDS011;5939;56.522;14.950;2022-08-01T12:42:45;1.30;;;1.20;;
11763;SDS011;5939;56.522;14.950;2022-08-01T12:45:14;1.40;;;1.30;;
11763;SDS011;5939;56.522;14.950;2022-08-01T12:47:42;1.30;;;1.20;;
11763;SDS011;5939;56.522;14.950;2022-08-01T12:50:16;2.00;;;1.40;;
11763;SDS011;5939;56.522;14.950;2022-08-01T12:52:46;1.50;;;1.40;;
11763;SDS011;5939;56.522;14.950;2022-08-01T12:55:13;1.97;;;1.37;;
11763;SDS011;5939;56.522;14.950;2022-08-01T12:57:43;1.83;;;1.27;;
11763;SDS011;5939;56.522;14.950;2022-08-01T13:00:23;1.20;;;1.07;;
11763;SDS011;5939;56.522;14.950;2022-08-01T13:03:01;1.20;;;1.10;;
11763;SDS011;5939;56.522;14.950;2022-08-01T13:05:27;1.50;;;1.40;;
11763;SDS011;5939;56.522;14.950;2022-08-01T13:07:53;1.40;;;1.30;;
11763;SDS011;5939;56.522;14.950;2022-08-01T13:10:27;1.30;;;1.20;;
11763;SDS011;5939;56.522;14.950;2022-08-01T13:12:55;1.67;;;1.00;;
11763;SDS011;5939;56.522;14.950;2022-08-01T13:18:00;1.50;;;1.40;;
11763;SDS011;5939;56.522;14.950;2022-08-01T13:20:46;1.70;;;1.13;;
11763;SDS011;5939;56.522;14.950;2022-08-01T13:23:13;1.77;;;1.20;;
11763;SDS011;5939;56.522;14.950;2022-08-01T13:26:13;2.20;;;1.30;;
11763;SDS011;5939;56.522;14.950;2022-08-01T13:28:32;1.80;;;1.20;;
11763;SDS011;5939;56.522;14.950;2022-08-01T13:31:03;1.40;;;1.30;;
11763;SDS011;5939;56.522;14.950;2022-08-01T13:33:47;1.10;;;1.00;;
11763;SDS011;5939;56.522;14.950;2022-08-01T13:36:13;1.30;;;1.20;;
11763;SDS011;5939;56.522;14.950;2022-08-01T13:38:41;1.37;;;1.27;;
11763;SDS011;5939;56.522;14.950;2022-08-01T13:41:26;2.00;;;1.20;;
11763;SDS011;5939;56.522;14.950;2022-08-01T13:43:52;1.30;;;1.20;;
11763;SDS011;5939;56.522;14.950;2022-08-01T13:46:18;1.33;;;1.23;;
11763;SDS011;5939;56.522;14.950;2022-08-01T13:48:44;1.63;;;1.30;;
11763;SDS011;5939;56.522;14.950;2022-08-01T13:51:10;1.77;;;1.50;;
11763;SDS011;5939;56.522;14.950;2022-08-01T13:53:35;1.63;;;1.20;;
11763;SDS011;5939;56.522;14.950;2022-08-01T13:56:01;1.60;;;1.40;;
11763;SDS011;5939;56.522;14.950;2022-08-01T13:58:27;1.50;;;1.40;;
11763;SDS011;5939;56.522;14.950;2022-08-01T14:00:53;2.33;;;1.30;;
11763;SDS011;5939;56.522;14.950;2022-08-01T14:03:20;1.47;;;1.37;;
11763;SDS011;5939;56.522;14.950;2022-08-01T14:05:46;1.30;;;1.20;;
11763;SDS011;5939;56.522;14.950;2022-08-01T14:08:12;1.30;;;1.20;;
11763;SDS011;5939;56.522;14.950;2022-08-01T14:10:38;1.33;;;1.23;;
11763;SDS011;5939;56.522;14.950;2022-08-01T14:13:04;1.50;;;1.40;;
11763;SDS011;5939;56.522;14.950;2022-08-01T14:15:30;1.53;;;1.43;;
11763;SDS011;5939;56.522;14.950;2022-08-01T14:17:57;1.97;;;1.50;;
11763;SDS011;5939;56.522;14.950;2022-08-01T14:20:22;1.60;;;1.50;;
11763;SDS011;5939;56.522;14.950;2022-08-01T14:22:48;1.60;;;1.20;;
11763;SDS011;5939;56.522;14.950;2022-08-01T14:25:14;1.37;;;1.23;;
11763;SDS011;5939;56.522;14.950;2022-08-01T14:27:40;2.40;;;1.40;;
11763;SDS011;5939;56.522;14.950;2022-08-01T14:30:07;1.63;;;1.30;;
11763;SDS011;5939;56.522;14.950;2022-08-01T14:32:33;1.60;;;1.47;;
11763;SDS011;5939;56.522;14.950;2022-08-01T14:35:03;1.67;;;1.53;;
11763;SDS011;5939;56.522;14.950;2022-08-01T14:37:30;1.47;;;1.37;;
11763;SDS011;5939;56.522;14.950;2022-08-01T14:39:56;1.70;;;1.60;;
11763;SDS011;5939;56.522;14.950;2022-08-01T14:42:22;1.53;;;1.30;;
11763;SDS011;5939;56.522;14.950;2022-08-01T14:44:48;1.47;;;1.37;;
11763;SDS011;5939;56.522;14.950;2022-08-01T14:47:14;1.57;;;1.47;;
11763;SDS011;5939;56.522;14.950;2022-08-01T14:49:39;1.40;;;1.30;;
11763;SDS011;5939;56.522;14.950;2022-08-01T14:52:05;1.70;;;1.60;;
11763;SDS011;5939;56.522;14.950;2022-08-01T14:54:31;1.60;;;1.40;;
11763;SDS011;5939;56.522;14.950;2022-08-01T14:57:04;1.93;;;1.50;;
11763;SDS011;5939;56.522;14.950;2022-08-01T14:59:30;1.67;;;1.50;;
11763;SDS011;5939;56.522;14.950;2022-08-01T15:01:56;1.53;;;1.40;;
11763;SDS011;5939;56.522;14.950;2022-08-01T15:04:21;2.30;;;1.57;;
11763;SDS011;5939;56.522;14.950;2022-08-01T15:06:47;1.50;;;1.40;;
11763;SDS011;5939;56.522;14.950;2022-08-01T15:09:13;1.43;;;1.33;;
11763;SDS011;5939;56.522;14.950;2022-08-01T15:11:38;2.60;;;1.60;;
11763;SDS011;5939;56.522;14.950;2022-08-01T15:14:04;1.40;;;1.30;;
11763;SDS011;5939;56.522;14.950;2022-08-01T15:16:48;1.87;;;1.40;;
11763;SDS011;5939;56.522;14.950;2022-08-01T15:19:14;1.47;;;1.37;;
11763;SDS011;5939;56.522;14.950;2022-08-01T15:21:40;1.53;;;1.37;;
11763;SDS011;5939;56.522;14.950;2022-08-01T15:24:05;1.60;;;1.50;;
11763;SDS011;5939;56.522;14.950;2022-08-01T15:26:31;1.80;;;1.43;;
11763;SDS011;5939;56.522;14.950;2022-08-01T15:28:57;1.70;;;1.47;;
11763;SDS011;5939;56.522;14.950;2022-08-01T15:31:23;1.90;;;1.63;;
11763;SDS011;5939;56.522;14.950;2022-08-01T15:33:49;2.23;;;1.50;;
11763;SDS011;5939;56.522;14.950;2022-08-01T15:36:15;1.73;;;1.60;;
11763;SDS011;5939;56.522;14.950;2022-08-01T15:38:40;1.70;;;1.60;;
11763;SDS011;5939;56.522;14.950;2022-08-01T15:41:06;1.37;;;1.27;;
11763;SDS011;5939;56.522;14.950;2022-08-01T15:43:32;1.40;;;1.30;;
11763;SDS011;5939;56.522;14.950;2022-08-01T15:45:57;1.60;;;1.50;;
11763;SDS011;5939;56.522;14.950;2022-08-01T15:48:23;2.53;;;1.70;;